If you wish to contribute or participate in the discussions about articles you are invited to join SKYbrary as a registered user

 Actions

Valle del Fuerte International Airport

From SKYbrary Wiki

MMLM
Airport
ICAO: MMLM – IATA: LMM
Summary
Name Valle del Fuerte International Airport
Region South America and Caribbean
Territory Mexico MX.gif
Location Plan de Guadalupe, Sinaloa
Serving Los Mochis
Elevation 4.877 m
16 ft
16 ft4.877 m
Type medium airport
Coordinates 25° 41' 6.70" N, 109° 4' 50.90" W
Runways
Designator Length Width Surface ROPS
9/27 2000 m6,561.68 ft
45 m147.638 ft
ASP yes/yes


METAR
Observation MMLM 162045Z 18016KT 10SM BKN220 34/21 A2984 RMK SLP105 8/008 HZY ISOL AC
Station Los Mochis Airport
Date/Time 16 July 2019 20:45:00
Wind direction 180°
Wind speed 16 kts
Lowest cloud amount broken clouds
Temperature 34°C
Dew point 21°C
Humidity 46%
QNH hPa
Weather condition n/a

Valle del Fuerte Federal International Airport or commonly named Los Mochis International Airport is the airport serving Los Mochis, Sinaloa, Mexico.

Climatology

Hot Desert Climate (Köppen climate classification BWh)

Maps

Terrain

Loading map...

Airport Layout

Loading map...


Accidents & Serious Incidents at or in vicinity of MMLM

None on SKYbrary